createdAt,value
2023-12-17T00:01:28.832Z,101168.52
2023-12-17T00:03:59.713Z,101173.84
2023-12-17T00:06:30.702Z,101173.48
2023-12-17T00:09:01.678Z,101174.25
2023-12-17T00:11:32.508Z,101179.97
2023-12-17T00:14:03.457Z,101177.43
2023-12-17T00:16:34.421Z,101182.27
2023-12-17T00:19:05.422Z,101183.27
2023-12-17T00:21:36.622Z,101173.48
2023-12-17T00:24:08.020Z,101175.23
2023-12-17T00:26:38.960Z,101178.38
2023-12-17T00:29:09.744Z,101178.59
2023-12-17T00:31:40.601Z,101179.14
2023-12-17T00:34:11.779Z,101180.56
2023-12-17T00:36:42.956Z,101186.96
2023-12-17T00:39:14.641Z,101178.95
2023-12-17T00:41:45.572Z,101174.92
2023-12-17T00:44:16.605Z,101174.19
2023-12-17T00:46:47.617Z,101176.20
2023-12-17T00:49:19.007Z,101180.27
2023-12-17T00:51:50.121Z,101179.19
2023-12-17T00:54:21.348Z,101176.96
2023-12-17T00:56:52.454Z,101178.17
2023-12-17T00:59:23.220Z,101176.36
2023-12-17T01:01:54.229Z,101182.09
2023-12-17T01:04:25.238Z,101180.05
2023-12-17T01:06:56.160Z,101174.05
2023-12-17T01:09:27.026Z,101167.98
2023-12-17T01:11:59.484Z,101161.19
2023-12-17T01:14:33.567Z,101151.90
2023-12-17T01:17:04.689Z,101136.53
2023-12-17T01:19:38.883Z,101135.28
2023-12-17T01:22:10.170Z,101134.63
2023-12-17T01:24:42.741Z,101132.61
2023-12-17T01:27:13.839Z,101129.19
2023-12-17T01:29:44.829Z,101124.67
2023-12-17T01:32:15.765Z,101130.73
2023-12-17T01:34:46.936Z,101133.52
2023-12-17T01:37:18.320Z,101142.25
2023-12-17T01:39:49.161Z,101144.48
2023-12-17T01:42:20.133Z,101138.91
2023-12-17T01:44:50.958Z,101132.83
2023-12-17T01:47:22.025Z,101133.13
2023-12-17T01:49:53.182Z,101141.11
2023-12-17T01:52:24.879Z,101153.06
2023-12-17T01:54:56.300Z,101167.77
2023-12-17T01:57:27.288Z,101171.41
2023-12-17T01:59:58.564Z,101173.97
2023-12-17T02:02:29.391Z,101169.86
2023-12-17T02:05:02.821Z,101161.31
2023-12-17T02:07:34.067Z,101160.63
2023-12-17T02:10:05.269Z,101157.86
2023-12-17T02:12:36.506Z,101152.40
2023-12-17T02:15:09.403Z,101150.27
2023-12-17T02:17:40.497Z,101160.86
2023-12-17T02:20:12.808Z,101148.52
2023-12-17T02:22:47.630Z,101146.33
2023-12-17T02:25:19.248Z,101144.01
2023-12-17T02:27:50.105Z,101144.97
2023-12-17T02:30:20.935Z,101141.83
2023-12-17T02:32:52.280Z,101136.64
2023-12-17T02:35:23.782Z,101134.64
2023-12-17T02:37:54.485Z,101136.55
2023-12-17T02:40:25.260Z,101131.70
2023-12-17T02:42:56.174Z,101128.92
2023-12-17T02:45:27.325Z,101130.20
2023-12-17T02:47:58.367Z,101133.20
2023-12-17T02:50:29.474Z,101129.14
2023-12-17T02:53:00.144Z,101134.73
2023-12-17T02:55:30.894Z,101133.88
2023-12-17T02:58:01.594Z,101130.16
2023-12-17T03:00:32.384Z,101128.41
2023-12-17T03:03:03.785Z,101137.90
2023-12-17T03:05:34.736Z,101139.70
2023-12-17T03:08:05.755Z,101148.80
2023-12-17T03:10:39.603Z,101139.58
2023-12-17T03:13:09.175Z,101133.98
2023-12-17T03:15:39.974Z,101138.90
2023-12-17T03:18:11.045Z,101140.86
2023-12-17T03:20:42.188Z,101138.57
2023-12-17T03:23:13.523Z,101134.39
2023-12-17T03:25:44.648Z,101133.17
2023-12-17T03:28:15.320Z,101137.36
2023-12-17T03:30:46.157Z,101136.47
2023-12-17T03:33:17.127Z,101125.28
2023-12-17T03:35:48.717Z,101125.06
2023-12-17T03:38:19.874Z,101120.15
2023-12-17T03:40:50.791Z,101119.30
2023-12-17T03:43:22.058Z,101107.48
2023-12-17T03:45:52.907Z,101101.59
2023-12-17T03:48:24.168Z,101097.92
2023-12-17T03:50:55.442Z,101105.14
2023-12-17T03:53:26.432Z,101112.55
2023-12-17T03:55:57.250Z,101105.71
2023-12-17T03:58:29.061Z,101110.34
2023-12-17T04:00:59.853Z,101113.52
2023-12-17T04:03:30.740Z,101124.52
2023-12-17T04:06:03.625Z,101132.11
2023-12-17T04:08:34.498Z,101135.59
2023-12-17T04:11:05.675Z,101138.10
2023-12-17T04:13:36.596Z,101135.84
2023-12-17T04:16:08.288Z,101140.80
2023-12-17T04:18:39.346Z,101136.18
2023-12-17T04:21:10.591Z,101134.39
2023-12-17T04:23:41.859Z,101131.42
2023-12-17T04:26:14.533Z,101128.53
2023-12-17T04:28:45.255Z,101144.54
2023-12-17T04:31:16.070Z,101155.75
2023-12-17T04:33:47.058Z,101162.52
2023-12-17T04:36:18.438Z,101161.89
2023-12-17T04:38:49.944Z,101153.57
2023-12-17T04:41:21.557Z,101142.76
2023-12-17T04:43:52.286Z,101135.50
2023-12-17T04:46:23.349Z,101128.66
2023-12-17T04:48:54.115Z,101127.93
2023-12-17T04:51:25.316Z,101128.98
2023-12-17T04:53:57.348Z,101117.40
2023-12-17T04:56:28.345Z,101113.67
2023-12-17T04:58:59.069Z,101110.98
2023-12-17T05:01:29.811Z,101115.29
2023-12-17T05:04:00.654Z,101123.86
2023-12-17T05:06:31.644Z,101129.96
2023-12-17T05:09:02.552Z,101141.79
2023-12-17T05:11:33.473Z,101148.52
2023-12-17T05:14:04.603Z,101148.44
2023-12-17T05:16:35.676Z,101142.13
2023-12-17T05:19:06.619Z,101139.08
2023-12-17T05:21:37.501Z,101136.30
2023-12-17T05:24:11.181Z,101143.04
2023-12-17T05:26:42.081Z,101146.40
2023-12-17T05:29:13.126Z,101150.94
2023-12-17T05:31:43.972Z,101148.89
2023-12-17T05:34:15.108Z,101155.50
2023-12-17T05:36:46.240Z,101155.05
2023-12-17T05:39:17.241Z,101146.09
2023-12-17T05:41:48.060Z,101143.04
2023-12-17T05:44:19.174Z,101142.63
2023-12-17T05:46:49.932Z,101142.05
2023-12-17T05:49:21.009Z,101145.00
2023-12-17T05:51:53.188Z,101139.11
2023-12-17T05:54:24.262Z,101137.94
2023-12-17T05:56:55.271Z,101139.67
2023-12-17T05:59:26.170Z,101138.91
2023-12-17T06:01:57.333Z,101138.28
2023-12-17T06:04:28.677Z,101140.47
2023-12-17T06:07:00.287Z,101137.80
2023-12-17T06:09:31.396Z,101127.85
2023-12-17T06:12:02.314Z,101127.73
2023-12-17T06:14:33.146Z,101127.76
2023-12-17T06:17:04.124Z,101127.34
2023-12-17T06:19:35.088Z,101131.55
2023-12-17T06:22:07.018Z,101142.04
2023-12-17T06:24:37.851Z,101145.67
2023-12-17T06:27:09.217Z,101147.02
2023-12-17T06:29:40.514Z,101140.85
2023-12-17T06:32:12.442Z,101138.32
2023-12-17T06:34:43.855Z,101138.60
2023-12-17T06:37:15.007Z,101138.70
2023-12-17T06:39:46.046Z,101145.66
2023-12-17T06:42:17.046Z,101143.25
2023-12-17T06:44:48.095Z,101144.14
2023-12-17T06:47:26.337Z,101138.29
2023-12-17T06:49:59.488Z,101141.64
2023-12-17T06:52:30.279Z,101147.30
2023-12-17T06:55:01.422Z,101146.58
2023-12-17T06:57:32.465Z,101149.09
2023-12-17T07:00:04.128Z,101146.17
2023-12-17T07:02:35.488Z,101142.95
2023-12-17T07:05:07.232Z,101141.83
2023-12-17T07:07:38.648Z,101148.23
2023-12-17T07:10:13.124Z,101151.98
2023-12-17T07:12:44.278Z,101145.91
2023-12-17T07:15:15.718Z,101144.66
2023-12-17T07:17:47.173Z,101144.92
2023-12-17T07:20:19.160Z,101141.84
2023-12-17T07:22:50.430Z,101147.90
2023-12-17T07:25:22.298Z,101151.63
2023-12-17T07:27:53.454Z,101151.15
2023-12-17T07:30:24.674Z,101151.17
2023-12-17T07:32:56.662Z,101150.77
2023-12-17T07:35:28.281Z,101149.83
2023-12-17T07:38:00.883Z,101149.52
2023-12-17T07:40:32.159Z,101161.16
2023-12-17T07:43:03.426Z,101157.98
2023-12-17T07:45:35.552Z,101157.35
2023-12-17T07:48:07.169Z,101151.15
2023-12-17T07:50:38.371Z,101147.48
2023-12-17T07:53:09.576Z,101143.46
2023-12-17T07:55:40.718Z,101138.66
2023-12-17T07:58:11.922Z,101143.98
2023-12-17T08:00:42.862Z,101148.02
2023-12-17T08:03:13.924Z,101144.39
2023-12-17T08:05:45.768Z,101142.20
2023-12-17T08:08:16.873Z,101139.77
2023-12-17T08:10:48.465Z,101138.58
2023-12-17T08:13:19.782Z,101140.98
2023-12-17T08:15:50.785Z,101143.39
2023-12-17T08:18:22.353Z,101148.05
2023-12-17T08:20:53.664Z,101147.40
2023-12-17T08:23:24.948Z,101145.93
2023-12-17T08:25:56.119Z,101147.58
2023-12-17T08:28:27.537Z,101152.20
2023-12-17T08:30:58.617Z,101160.30
2023-12-17T08:33:29.833Z,101156.59
2023-12-17T08:36:00.865Z,101155.96
2023-12-17T08:38:32.247Z,101153.30
2023-12-17T08:41:03.062Z,101155.21
2023-12-17T08:43:33.944Z,101149.13
2023-12-17T08:46:04.997Z,101155.29
2023-12-17T08:48:36.143Z,101158.89
2023-12-17T08:51:07.792Z,101157.48
2023-12-17T08:53:38.763Z,101155.53
2023-12-17T08:56:11.887Z,101158.11
2023-12-17T08:58:43.156Z,101157.77
2023-12-17T09:01:14.466Z,101152.17
2023-12-17T09:03:45.816Z,101146.98
2023-12-17T09:06:17.298Z,101153.24
2023-12-17T09:08:48.504Z,101157.71
2023-12-17T09:11:19.871Z,101157.19
2023-12-17T09:13:51.297Z,101155.17
2023-12-17T09:16:22.500Z,101157.61
2023-12-17T09:18:53.788Z,101158.37
2023-12-17T09:21:26.198Z,101164.14
2023-12-17T09:23:58.067Z,101167.70
2023-12-17T09:26:29.044Z,101170.83
2023-12-17T09:29:00.376Z,101171.46
2023-12-17T09:31:31.401Z,101172.45
2023-12-17T09:34:02.593Z,101172.37
2023-12-17T09:36:36.706Z,101176.09
2023-12-17T09:39:06.366Z,101172.30
2023-12-17T09:41:37.638Z,101165.98
2023-12-17T09:44:09.185Z,101167.54
2023-12-17T09:46:40.082Z,101164.15
2023-12-17T09:49:11.428Z,101153.83
2023-12-17T09:51:49.200Z,101145.06
2023-12-17T09:54:20.237Z,101133.65
2023-12-17T09:56:54.017Z,101136.59
2023-12-17T09:59:25.040Z,101138.76
2023-12-17T10:01:56.833Z,101138.84
2023-12-17T10:04:29.508Z,101136.88
2023-12-17T10:07:00.789Z,101129.16
2023-12-17T10:09:32.674Z,101127.93
2023-12-17T10:12:03.786Z,101128.67
2023-12-17T10:14:34.689Z,101121.67
2023-12-17T10:17:06.238Z,101125.55
2023-12-17T10:19:37.346Z,101126.69
2023-12-17T10:22:11.478Z,101116.03
2023-12-17T10:24:42.443Z,101119.90
2023-12-17T10:27:19.483Z,101115.55
2023-12-17T10:29:53.447Z,101111.16
2023-12-17T10:32:28.110Z,101114.80
2023-12-17T10:34:59.843Z,101115.48
2023-12-17T10:37:31.401Z,101119.09
2023-12-17T10:40:03.964Z,101119.95
2023-12-17T10:42:37.285Z,101113.84
2023-12-17T10:45:12.373Z,101110.21
2023-12-17T10:47:44.241Z,101102.38
2023-12-17T10:50:15.510Z,101093.52
2023-12-17T10:52:48.616Z,101088.89
2023-12-17T10:55:20.771Z,101089.92
2023-12-17T10:57:55.991Z,101085.80
2023-12-17T11:00:32.174Z,101082.17
2023-12-17T11:03:07.769Z,101082.98
2023-12-17T11:05:41.157Z,101078.84
2023-12-17T11:08:14.128Z,101072.52
2023-12-17T11:10:46.771Z,101060.99
2023-12-17T11:13:18.163Z,101058.21
2023-12-17T11:15:49.090Z,101048.63
2023-12-17T11:18:20.618Z,101046.63
2023-12-17T11:20:53.778Z,101044.63
2023-12-17T11:23:25.120Z,101043.67
2023-12-17T11:25:57.865Z,101045.83
2023-12-17T11:28:29.653Z,101039.65
2023-12-17T11:31:02.208Z,101039.82
2023-12-17T11:33:35.105Z,101038.20
2023-12-17T11:36:07.303Z,101044.48
2023-12-17T11:38:39.168Z,101044.62
2023-12-17T11:41:10.714Z,101041.49
2023-12-17T11:43:41.815Z,101035.03
2023-12-17T11:46:18.388Z,101034.98
2023-12-17T11:48:50.083Z,101028.86
2023-12-17T11:51:29.416Z,101022.70
2023-12-17T11:54:01.314Z,101021.52
2023-12-17T11:56:33.464Z,101024.25
2023-12-17T11:59:04.550Z,101026.17
2023-12-17T12:01:35.894Z,101027.88
2023-12-17T12:04:07.409Z,101034.13
2023-12-17T12:06:38.566Z,101032.89
2023-12-17T12:09:21.472Z,101039.63
2023-12-17T12:11:52.645Z,101044.32
2023-12-17T12:14:23.891Z,101048.39
2023-12-17T12:16:56.130Z,101047.07
2023-12-17T12:19:31.967Z,101038.95
2023-12-17T12:22:03.931Z,101033.88
2023-12-17T12:24:37.497Z,101035.06
2023-12-17T12:27:10.257Z,101035.20
2023-12-17T12:29:42.331Z,101031.70
2023-12-17T12:32:13.352Z,101030.75
2023-12-17T12:34:46.746Z,101031.76
2023-12-17T12:37:32.437Z,101026.03
2023-12-17T12:40:05.023Z,101020.51
2023-12-17T12:42:37.520Z,101015.61
2023-12-17T12:45:11.946Z,101012.45
2023-12-17T12:47:43.962Z,101016.58
2023-12-17T12:50:15.429Z,101018.10
2023-12-17T12:52:46.508Z,101016.30
2023-12-17T12:55:17.445Z,101015.73
2023-12-17T12:57:48.737Z,101002.23
2023-12-17T13:00:22.192Z,101002.29
2023-12-17T13:02:53.333Z,101003.88
2023-12-17T13:05:24.752Z,100999.08
2023-12-17T13:07:55.773Z,101007.27
2023-12-17T13:10:26.936Z,101003.77
2023-12-17T13:12:58.569Z,101003.27
2023-12-17T13:15:32.252Z,100998.13
2023-12-17T13:18:06.115Z,100997.52
2023-12-17T13:20:37.508Z,100996.50
2023-12-17T13:23:09.218Z,100993.23
2023-12-17T13:25:41.037Z,100989.90
2023-12-17T13:28:12.111Z,100987.41
2023-12-17T13:30:43.870Z,100991.87
2023-12-17T13:33:14.933Z,100989.67
2023-12-17T13:35:46.293Z,100985.89
2023-12-17T13:38:17.569Z,100980.69
2023-12-17T13:40:50.999Z,100971.54
2023-12-17T13:43:23.384Z,100960.13
2023-12-17T13:45:54.425Z,100958.71
2023-12-17T13:48:25.812Z,100956.91
2023-12-17T13:50:57.659Z,100958.54
2023-12-17T13:53:28.965Z,100959.91
2023-12-17T13:56:00.503Z,100961.73
2023-12-17T13:58:32.209Z,100962.95
2023-12-17T14:01:04.237Z,100960.08
2023-12-17T14:03:35.789Z,100959.45
2023-12-17T14:06:10.033Z,100953.64
2023-12-17T14:08:41.352Z,100959.38
2023-12-17T14:11:14.700Z,100955.48
2023-12-17T14:13:47.437Z,100963.61
2023-12-17T14:16:23.388Z,100958.75
2023-12-17T14:18:54.419Z,100959.82
2023-12-17T14:21:26.248Z,100959.82
2023-12-17T14:23:57.659Z,100952.13
2023-12-17T14:26:29.217Z,100944.96
2023-12-17T14:29:00.465Z,100946.94
2023-12-17T14:31:35.549Z,100945.52
2023-12-17T14:34:08.442Z,100940.77
2023-12-17T14:36:40.359Z,100942.46
2023-12-17T14:39:11.962Z,100940.77
2023-12-17T14:41:43.990Z,100940.83
2023-12-17T14:44:15.250Z,100932.87
2023-12-17T14:46:46.219Z,100932.54
2023-12-17T14:49:17.598Z,100932.27
2023-12-17T14:51:49.204Z,100929.33
2023-12-17T14:54:20.252Z,100931.36
2023-12-17T14:56:51.620Z,100934.29
2023-12-17T14:59:22.414Z,100942.52
2023-12-17T15:01:55.755Z,100943.16
2023-12-17T15:04:28.654Z,100956.76
2023-12-17T15:06:59.648Z,100958.98
2023-12-17T15:09:33.014Z,100953.91
2023-12-17T15:12:07.802Z,100950.76
2023-12-17T15:14:38.988Z,100950.31
2023-12-17T15:17:09.861Z,100948.56
2023-12-17T15:19:42.388Z,100947.21
2023-12-17T15:22:13.780Z,100950.31
2023-12-17T15:24:45.553Z,100954.27
2023-12-17T15:27:16.945Z,100958.63
2023-12-17T15:29:47.677Z,100959.75
2023-12-17T15:32:18.647Z,100957.16
2023-12-17T15:34:49.620Z,100956.70
2023-12-17T15:37:20.714Z,100958.00
2023-12-17T15:39:51.984Z,100955.81
2023-12-17T15:42:23.043Z,100956.23
2023-12-17T15:44:54.001Z,100953.46
2023-12-17T15:47:26.170Z,100953.12
2023-12-17T15:49:57.032Z,100954.02
2023-12-17T15:52:28.333Z,100955.95
2023-12-17T15:54:59.599Z,100963.23
2023-12-17T15:57:30.459Z,100966.45
2023-12-17T16:00:05.689Z,100965.66
2023-12-17T16:02:36.656Z,100965.55
2023-12-17T16:05:08.976Z,100969.61
2023-12-17T16:07:50.705Z,100972.11
2023-12-17T16:10:22.426Z,100964.59
2023-12-17T16:12:53.639Z,100958.88
2023-12-17T16:15:24.634Z,100958.55
2023-12-17T16:17:56.293Z,100958.04
2023-12-17T16:20:27.564Z,100957.82
2023-12-17T16:22:58.902Z,100952.40
2023-12-17T16:25:31.365Z,100943.82
2023-12-17T16:28:02.408Z,100938.01
2023-12-17T16:30:33.323Z,100936.09
2023-12-17T16:33:04.838Z,100940.33
2023-12-17T16:35:36.104Z,100942.81
2023-12-17T16:38:07.618Z,100942.75
2023-12-17T16:40:45.306Z,100948.73
2023-12-17T16:43:17.148Z,100948.27
2023-12-17T16:45:48.874Z,100952.68
2023-12-17T16:48:21.927Z,100953.92
2023-12-17T16:50:53.544Z,100954.59
2023-12-17T16:53:24.761Z,100948.89
2023-12-17T16:55:55.749Z,100945.45
2023-12-17T16:58:27.493Z,100948.40
2023-12-17T17:00:59.598Z,100953.20
2023-12-17T17:03:30.792Z,100950.94
2023-12-17T17:06:01.877Z,100950.13
2023-12-17T17:08:32.893Z,100948.33
2023-12-17T17:11:11.133Z,100945.05
2023-12-17T17:13:45.227Z,100945.54
2023-12-17T17:16:16.413Z,100945.70
2023-12-17T17:18:47.373Z,100944.63
2023-12-17T17:21:18.594Z,100942.70
2023-12-17T17:23:51.138Z,100942.14
2023-12-17T17:26:21.977Z,100935.47
2023-12-17T17:28:52.936Z,100935.52
2023-12-17T17:31:23.807Z,100939.09
2023-12-17T17:33:55.428Z,100940.16
2023-12-17T17:36:26.746Z,100942.08
2023-12-17T17:38:57.603Z,100942.08
2023-12-17T17:41:28.542Z,100942.14
2023-12-17T17:43:59.715Z,100941.52
2023-12-17T17:46:31.061Z,100946.42
2023-12-17T17:49:02.671Z,100942.46
2023-12-17T17:51:33.631Z,100940.77
2023-12-17T17:54:05.033Z,100939.58
2023-12-17T17:56:35.945Z,100937.61
2023-12-17T17:59:07.029Z,100942.58
2023-12-17T18:01:38.863Z,100940.89
2023-12-17T18:04:09.774Z,100936.44
2023-12-17T18:06:43.084Z,100934.23
2023-12-17T18:09:15.728Z,100933.67
2023-12-17T18:11:46.870Z,100932.84
2023-12-17T18:14:17.965Z,100938.83
2023-12-17T18:16:49.313Z,100939.77
2023-12-17T18:19:20.794Z,100934.66
2023-12-17T18:21:52.061Z,100934.30
2023-12-17T18:24:23.587Z,100938.39
2023-12-17T18:26:58.591Z,100936.59
2023-12-17T18:29:29.767Z,100936.70
2023-12-17T18:32:00.980Z,100930.61
2023-12-17T18:34:33.470Z,100929.65
2023-12-17T18:37:05.043Z,100931.24
2023-12-17T18:39:36.320Z,100927.01
2023-12-17T18:42:08.576Z,100921.17
2023-12-17T18:44:40.557Z,100919.70
2023-12-17T18:47:12.657Z,100923.15
2023-12-17T18:49:44.114Z,100923.27
2023-12-17T18:52:15.883Z,100918.54
2023-12-17T18:55:00.609Z,100912.05
2023-12-17T18:57:33.118Z,100910.23
2023-12-17T19:00:04.292Z,100906.89
2023-12-17T19:02:36.395Z,100902.59
2023-12-17T19:05:09.027Z,100902.20
2023-12-17T19:07:40.338Z,100909.83
2023-12-17T19:10:12.435Z,100905.55
2023-12-17T19:12:43.896Z,100902.10
2023-12-17T19:15:15.321Z,100901.48
2023-12-17T19:17:46.513Z,100899.11
2023-12-17T19:20:18.364Z,100900.80
2023-12-17T19:22:50.202Z,100906.17
2023-12-17T19:25:22.997Z,100902.84
2023-12-17T19:27:54.101Z,100897.92
2023-12-17T19:30:25.310Z,100905.48
2023-12-17T19:32:57.322Z,100909.92
2023-12-17T19:35:28.370Z,100904.06
2023-12-17T19:37:59.561Z,100899.38
2023-12-17T19:40:31.154Z,100892.43
2023-12-17T19:43:02.440Z,100897.86
2023-12-17T19:45:35.508Z,100898.14
2023-12-17T19:48:08.035Z,100902.15
2023-12-17T19:50:40.516Z,100904.29
2023-12-17T19:53:15.209Z,100908.29
2023-12-17T19:55:47.374Z,100908.67
2023-12-17T19:58:18.495Z,100907.84
2023-12-17T20:00:49.989Z,100906.93
2023-12-17T20:03:22.175Z,100908.75
2023-12-17T20:05:53.464Z,100906.60
2023-12-17T20:08:26.267Z,100908.95
2023-12-17T20:10:58.462Z,100901.77
2023-12-17T20:13:30.451Z,100894.20
2023-12-17T20:16:01.558Z,100890.41
2023-12-17T20:18:33.100Z,100889.46
2023-12-17T20:21:04.667Z,100892.11
2023-12-17T20:23:37.864Z,100891.20
2023-12-17T20:26:09.073Z,100883.70
2023-12-17T20:28:40.715Z,100886.14
2023-12-17T20:31:12.188Z,100883.36
2023-12-17T20:33:44.056Z,100885.84
2023-12-17T20:36:16.046Z,100891.39
2023-12-17T20:38:47.409Z,100884.60
2023-12-17T20:41:20.506Z,100883.81
2023-12-17T20:43:51.734Z,100887.26
2023-12-17T20:46:24.258Z,100884.77
2023-12-17T20:48:55.565Z,100885.23
2023-12-17T20:51:27.843Z,100882.79
2023-12-17T20:53:59.100Z,100880.48
2023-12-17T20:56:30.464Z,100877.93
2023-12-17T20:59:01.814Z,100881.73
2023-12-17T21:01:32.930Z,100883.52
2023-12-17T21:04:04.632Z,100879.00
2023-12-17T21:06:36.122Z,100877.03
2023-12-17T21:09:07.705Z,100877.60
2023-12-17T21:11:44.450Z,100876.75
2023-12-17T21:14:15.837Z,100884.77
2023-12-17T21:16:48.118Z,100887.09
2023-12-17T21:19:19.965Z,100875.34
2023-12-17T21:21:51.644Z,100878.56
2023-12-17T21:24:22.893Z,100876.34
2023-12-17T21:26:54.268Z,100876.80
2023-12-17T21:29:25.167Z,100882.52
2023-12-17T21:31:56.352Z,100885.11
2023-12-17T21:34:27.562Z,100877.54
2023-12-17T21:36:58.886Z,100880.64
2023-12-17T21:39:29.978Z,100876.13
2023-12-17T21:42:01.168Z,100869.35
2023-12-17T21:44:32.105Z,100871.89
2023-12-17T21:47:03.593Z,100871.05
2023-12-17T21:49:34.619Z,100871.35
2023-12-17T21:52:21.833Z,100868.41
2023-12-17T21:55:00.748Z,100871.46
2023-12-17T21:57:40.937Z,100869.09
2023-12-17T22:00:21.144Z,100868.09
2023-12-17T22:02:52.358Z,100868.88
2023-12-17T22:05:24.110Z,100873.58
2023-12-17T22:07:55.073Z,100869.45
2023-12-17T22:10:27.132Z,100868.61
2023-12-17T22:12:58.275Z,100869.91
2023-12-17T22:15:29.281Z,100869.00
2023-12-17T22:18:00.811Z,100868.04
2023-12-17T22:20:33.171Z,100867.14
2023-12-17T22:23:06.370Z,100866.80
2023-12-17T22:25:38.331Z,100867.36
2023-12-17T22:28:09.981Z,100863.06
2023-12-17T22:30:41.145Z,100864.55
2023-12-17T22:33:12.209Z,100868.50
2023-12-17T22:35:43.197Z,100862.98
2023-12-17T22:38:14.283Z,100856.44
2023-12-17T22:40:45.481Z,100857.35
2023-12-17T22:43:16.409Z,100857.96
2023-12-17T22:45:47.405Z,100857.80
2023-12-17T22:48:18.427Z,100857.69
2023-12-17T22:50:49.367Z,100852.05
2023-12-17T22:53:20.137Z,100849.27
2023-12-17T22:55:50.984Z,100854.74
2023-12-17T22:58:21.898Z,100849.26
2023-12-17T23:00:55.771Z,100849.31
2023-12-17T23:03:27.147Z,100848.46
2023-12-17T23:05:58.111Z,100855.46
2023-12-17T23:08:29.065Z,100852.82
2023-12-17T23:10:59.878Z,100849.59
2023-12-17T23:13:31.031Z,100842.77
2023-12-17T23:16:01.839Z,100846.27
2023-12-17T23:18:32.974Z,100844.40
2023-12-17T23:21:04.370Z,100840.62
2023-12-17T23:23:35.531Z,100831.77
2023-12-17T23:26:08.953Z,100835.88
2023-12-17T23:28:39.783Z,100836.38
2023-12-17T23:31:10.573Z,100829.67
2023-12-17T23:33:41.695Z,100832.27
2023-12-17T23:36:12.708Z,100834.64
2023-12-17T23:38:43.622Z,100832.20
2023-12-17T23:41:16.341Z,100830.17
2023-12-17T23:43:47.080Z,100827.58
2023-12-17T23:46:18.698Z,100825.13
2023-12-17T23:48:49.505Z,100822.65
2023-12-17T23:51:20.360Z,100823.67
2023-12-17T23:53:51.818Z,100822.54
2023-12-17T23:56:22.800Z,100816.66
2023-12-17T23:58:53.924Z,100815.77
